sensor_id;sensor_type;location;lat;lon;timestamp;pressure;altitude;pressure_sealevel;temperature;humidity
24486;BME280;13449;49.374;8.584;2023-04-25T00:00:34;99986.84;;;8.85;100.00
24486;BME280;13449;49.374;8.584;2023-04-25T00:03:00;99985.16;;;8.92;100.00
24486;BME280;13449;49.374;8.584;2023-04-25T00:05:27;99980.78;;;8.84;100.00
24486;BME280;13449;49.374;8.584;2023-04-25T00:07:57;99985.84;;;8.86;100.00
24486;BME280;13449;49.374;8.584;2023-04-25T00:10:23;99977.84;;;8.79;100.00
24486;BME280;13449;49.374;8.584;2023-04-25T00:12:52;99979.31;;;8.82;100.00
24486;BME280;13449;49.374;8.584;2023-04-25T00:15:18;99979.56;;;8.72;100.00
24486;BME280;13449;49.374;8.584;2023-04-25T00:17:47;99987.19;;;8.82;100.00
24486;BME280;13449;49.374;8.584;2023-04-25T00:20:14;99977.34;;;8.84;100.00
24486;BME280;13449;49.374;8.584;2023-04-25T00:22:40;99991.53;;;8.75;100.00
24486;BME280;13449;49.374;8.584;2023-04-25T00:25:07;99989.53;;;8.77;100.00
24486;BME280;13449;49.374;8.584;2023-04-25T00:27:33;99986.84;;;8.85;100.00
24486;BME280;13449;49.374;8.584;2023-04-25T00:30:02;99982.47;;;8.77;100.00
24486;BME280;13449;49.374;8.584;2023-04-25T00:32:29;99982.84;;;8.74;100.00
24486;BME280;13449;49.374;8.584;2023-04-25T00:34:55;99985.75;;;8.56;100.00
24486;BME280;13449;49.374;8.584;2023-04-25T00:37:24;99978.22;;;8.76;100.00
24486;BME280;13449;49.374;8.584;2023-04-25T00:39:51;99973.25;;;8.58;100.00
24486;BME280;13449;49.374;8.584;2023-04-25T00:42:17;99973.84;;;8.69;100.00
24486;BME280;13449;49.374;8.584;2023-04-25T00:44:44;99974.00;;;8.67;100.00
24486;BME280;13449;49.374;8.584;2023-04-25T00:47:11;99969.28;;;8.62;100.00
24486;BME280;13449;49.374;8.584;2023-04-25T00:49:38;99963.56;;;8.59;100.00
24486;BME280;13449;49.374;8.584;2023-04-25T00:52:05;99956.84;;;8.56;100.00
24486;BME280;13449;49.374;8.584;2023-04-25T00:54:31;99957.03;;;8.55;100.00
24486;BME280;13449;49.374;8.584;2023-04-25T00:56:58;99955.75;;;8.51;100.00
24486;BME280;13449;49.374;8.584;2023-04-25T00:59:25;99955.63;;;8.44;100.00
24486;BME280;13449;49.374;8.584;2023-04-25T01:01:51;99957.66;;;8.57;100.00
24486;BME280;13449;49.374;8.584;2023-04-25T01:04:18;99952.84;;;8.46;100.00
24486;BME280;13449;49.374;8.584;2023-04-25T01:06:45;99955.00;;;8.42;100.00
24486;BME280;13449;49.374;8.584;2023-04-25T01:09:13;99950.09;;;8.39;100.00
24486;BME280;13449;49.374;8.584;2023-04-25T01:11:42;99953.47;;;8.48;100.00
24486;BME280;13449;49.374;8.584;2023-04-25T01:14:09;99952.03;;;8.45;100.00
24486;BME280;13449;49.374;8.584;2023-04-25T01:16:38;99946.41;;;8.48;100.00
24486;BME280;13449;49.374;8.584;2023-04-25T01:19:10;99947.75;;;8.44;100.00
24486;BME280;13449;49.374;8.584;2023-04-25T01:21:42;99948.91;;;8.41;100.00
24486;BME280;13449;49.374;8.584;2023-04-25T01:24:09;99948.28;;;8.39;100.00
24486;BME280;13449;49.374;8.584;2023-04-25T01:26:36;99950.97;;;8.54;100.00
24486;BME280;13449;49.374;8.584;2023-04-25T01:29:07;99947.72;;;8.52;100.00
24486;BME280;13449;49.374;8.584;2023-04-25T01:31:34;99941.91;;;8.57;100.00
24486;BME280;13449;49.374;8.584;2023-04-25T01:34:03;99946.66;;;8.38;100.00
24486;BME280;13449;49.374;8.584;2023-04-25T01:36:29;99944.97;;;8.46;100.00
24486;BME280;13449;49.374;8.584;2023-04-25T01:38:57;99946.13;;;8.43;100.00
24486;BME280;13449;49.374;8.584;2023-04-25T01:41:24;99942.50;;;8.44;100.00
24486;BME280;13449;49.374;8.584;2023-04-25T01:43:53;99945.25;;;8.51;100.00
24486;BME280;13449;49.374;8.584;2023-04-25T01:46:19;99945.25;;;8.51;100.00
24486;BME280;13449;49.374;8.584;2023-04-25T01:48:46;99946.78;;;8.45;100.00
24486;BME280;13449;49.374;8.584;2023-04-25T01:51:12;99949.16;;;8.55;100.00
24486;BME280;13449;49.374;8.584;2023-04-25T01:53:39;99940.81;;;8.51;100.00
24486;BME280;13449;49.374;8.584;2023-04-25T01:56:06;99947.34;;;8.55;100.00
24486;BME280;13449;49.374;8.584;2023-04-25T01:58:32;99937.56;;;8.49;100.00
24486;BME280;13449;49.374;8.584;2023-04-25T02:00:59;99952.03;;;8.45;100.00
24486;BME280;13449;49.374;8.584;2023-04-25T02:03:26;99948.44;;;8.38;100.00
24486;BME280;13449;49.374;8.584;2023-04-25T02:05:52;99945.94;;;8.45;100.00
24486;BME280;13449;49.374;8.584;2023-04-25T02:08:21;99945.81;;;8.38;100.00
24486;BME280;13449;49.374;8.584;2023-04-25T02:10:48;99951.06;;;8.38;100.00
24486;BME280;13449;49.374;8.584;2023-04-25T02:13:14;99944.84;;;8.31;100.00
24486;BME280;13449;49.374;8.584;2023-04-25T02:15:41;99954.34;;;8.32;100.00
24486;BME280;13449;49.374;8.584;2023-04-25T02:18:08;99944.56;;;8.26;100.00
24486;BME280;13449;49.374;8.584;2023-04-25T02:20:36;99949.50;;;8.20;100.00
24486;BME280;13449;49.374;8.584;2023-04-25T02:23:03;99948.00;;;8.26;100.00
24486;BME280;13449;49.374;8.584;2023-04-25T02:25:30;99946.06;;;8.20;100.00
24486;BME280;13449;49.374;8.584;2023-04-25T02:27:56;99954.53;;;8.30;100.00
24486;BME280;13449;49.374;8.584;2023-04-25T02:30:22;99950.41;;;8.36;100.00
24486;BME280;13449;49.374;8.584;2023-04-25T02:32:49;99954.19;;;8.33;100.00
24486;BME280;13449;49.374;8.584;2023-04-25T02:35:18;99959.44;;;8.33;100.00
24486;BME280;13449;49.374;8.584;2023-04-25T02:37:44;99956.16;;;8.39;100.00
24486;BME280;13449;49.374;8.584;2023-04-25T02:40:11;99952.22;;;8.35;100.00
24486;BME280;13449;49.374;8.584;2023-04-25T02:42:40;99954.88;;;8.27;100.00
24486;BME280;13449;49.374;8.584;2023-04-25T02:45:07;99940.25;;;8.33;100.00
24486;BME280;13449;49.374;8.584;2023-04-25T02:47:38;99942.34;;;8.37;100.00
24486;BME280;13449;49.374;8.584;2023-04-25T02:50:05;99936.81;;;8.32;100.00
24486;BME280;13449;49.374;8.584;2023-04-25T02:52:34;99938.31;;;8.27;100.00
24486;BME280;13449;49.374;8.584;2023-04-25T02:55:03;99937.78;;;8.31;100.00
24486;BME280;13449;49.374;8.584;2023-04-25T02:57:30;99933.06;;;8.27;100.00
24486;BME280;13449;49.374;8.584;2023-04-25T02:59:56;99935.09;;;8.16;100.00
24486;BME280;13449;49.374;8.584;2023-04-25T03:02:23;99940.16;;;8.18;100.00
24486;BME280;13449;49.374;8.584;2023-04-25T03:04:52;99937.53;;;8.18;100.00
24486;BME280;13449;49.374;8.584;2023-04-25T03:07:18;99941.09;;;8.25;100.00
24486;BME280;13449;49.374;8.584;2023-04-25T03:09:45;99935.56;;;8.20;100.00
24486;BME280;13449;49.374;8.584;2023-04-25T03:12:11;99934.41;;;8.23;100.00
24486;BME280;13449;49.374;8.584;2023-04-25T03:14:37;99927.50;;;8.22;100.00
24486;BME280;13449;49.374;8.584;2023-04-25T03:17:04;99930.81;;;8.15;100.00
24486;BME280;13449;49.374;8.584;2023-04-25T03:19:33;99936.50;;;8.27;100.00
24486;BME280;13449;49.374;8.584;2023-04-25T03:21:59;99937.78;;;8.31;100.00
24486;BME280;13449;49.374;8.584;2023-04-25T03:24:26;99924.47;;;8.41;100.00
24486;BME280;13449;49.374;8.584;2023-04-25T03:26:55;99930.91;;;8.38;100.00
24486;BME280;13449;49.374;8.584;2023-04-25T03:29:21;99928.75;;;8.34;100.00
24486;BME280;13449;49.374;8.584;2023-04-25T03:31:50;99922.69;;;8.33;100.00
24486;BME280;13449;49.374;8.584;2023-04-25T03:34:17;99924.84;;;8.30;100.00
24486;BME280;13449;49.374;8.584;2023-04-25T03:36:43;99925.19;;;8.27;100.00
24486;BME280;13449;49.374;8.584;2023-04-25T03:39:10;99929.91;;;8.31;100.00
24486;BME280;13449;49.374;8.584;2023-04-25T03:41:36;99925.78;;;8.37;100.00
24486;BME280;13449;49.374;8.584;2023-04-25T03:44:03;99924.03;;;8.29;100.00
24486;BME280;13449;49.374;8.584;2023-04-25T03:46:29;99921.88;;;8.33;100.00
24486;BME280;13449;49.374;8.584;2023-04-25T03:48:56;99924.84;;;8.30;100.00
24486;BME280;13449;49.374;8.584;2023-04-25T03:51:25;99921.88;;;8.33;100.00
24486;BME280;13449;49.374;8.584;2023-04-25T03:53:52;99927.00;;;8.26;100.00
24486;BME280;13449;49.374;8.584;2023-04-25T03:56:19;99931.09;;;8.29;100.00
24486;BME280;13449;49.374;8.584;2023-04-25T03:58:51;99933.75;;;8.20;100.00
24486;BME280;13449;49.374;8.584;2023-04-25T04:01:17;99923.72;;;8.24;100.00
24486;BME280;13449;49.374;8.584;2023-04-25T04:03:44;99924.88;;;8.22;100.00
24486;BME280;13449;49.374;8.584;2023-04-25T04:06:11;99928.97;;;8.24;100.00
24486;BME280;13449;49.374;8.584;2023-04-25T04:08:39;99941.88;;;8.34;100.00
24486;BME280;13449;49.374;8.584;2023-04-25T04:11:05;99934.81;;;8.34;100.00
24486;BME280;13449;49.374;8.584;2023-04-25T04:13:32;99939.81;;;8.21;100.00
24486;BME280;13449;49.374;8.584;2023-04-25T04:15:58;99935.38;;;8.22;100.00
24486;BME280;13449;49.374;8.584;2023-04-25T04:18:25;99945.84;;;8.30;100.00
24486;BME280;13449;49.374;8.584;2023-04-25T04:20:51;99939.44;;;8.32;100.00
24486;BME280;13449;49.374;8.584;2023-04-25T04:23:19;99940.06;;;8.34;100.00
24486;BME280;13449;49.374;8.584;2023-04-25T04:25:48;99943.34;;;8.36;100.00
24486;BME280;13449;49.374;8.584;2023-04-25T04:28:18;99942.41;;;8.29;100.00
24486;BME280;13449;49.374;8.584;2023-04-25T04:30:48;99942.53;;;8.36;100.00
24486;BME280;13449;49.374;8.584;2023-04-25T04:33:17;99937.50;;;8.26;100.00
24486;BME280;13449;49.374;8.584;2023-04-25T04:35:46;99937.03;;;8.23;100.00
24486;BME280;13449;49.374;8.584;2023-04-25T04:38:13;99947.47;;;8.31;100.00
24486;BME280;13449;49.374;8.584;2023-04-25T04:40:41;99943.56;;;8.27;100.00
24486;BME280;13449;49.374;8.584;2023-04-25T04:43:09;99956.84;;;8.25;100.00
24486;BME280;13449;49.374;8.584;2023-04-25T04:45:36;99956.03;;;8.25;100.00
24486;BME280;13449;49.374;8.584;2023-04-25T04:48:05;99952.22;;;8.35;100.00
24486;BME280;13449;49.374;8.584;2023-04-25T04:50:32;99954.66;;;8.45;100.00
24486;BME280;13449;49.374;8.584;2023-04-25T04:53:00;99957.75;;;8.49;100.00
24486;BME280;13449;49.374;8.584;2023-04-25T04:55:29;99958.44;;;8.42;100.00
24486;BME280;13449;49.374;8.584;2023-04-25T04:57:58;99961.56;;;8.38;100.00
24486;BME280;13449;49.374;8.584;2023-04-25T05:00:24;99977.63;;;8.43;100.00
24486;BME280;13449;49.374;8.584;2023-04-25T05:02:57;99976.75;;;8.51;100.00
24486;BME280;13449;49.374;8.584;2023-04-25T05:05:24;99978.16;;;8.61;100.00
24486;BME280;13449;49.374;8.584;2023-04-25T05:07:53;99972.50;;;8.50;100.00
24486;BME280;13449;49.374;8.584;2023-04-25T05:10:20;99978.63;;;8.42;100.00
24486;BME280;13449;49.374;8.584;2023-04-25T05:12:46;99966.56;;;8.56;100.00
24486;BME280;13449;49.374;8.584;2023-04-25T05:15:13;99977.50;;;8.59;100.00
24486;BME280;13449;49.374;8.584;2023-04-25T05:17:40;99971.91;;;8.62;100.00
24486;BME280;13449;49.374;8.584;2023-04-25T05:20:07;99977.88;;;8.56;100.00
24486;BME280;13449;49.374;8.584;2023-04-25T05:22:35;99979.50;;;8.57;100.00
24486;BME280;13449;49.374;8.584;2023-04-25T05:25:02;99972.31;;;8.51;100.00
24486;BME280;13449;49.374;8.584;2023-04-25T05:27:30;99971.59;;;8.57;100.00
24486;BME280;13449;49.374;8.584;2023-04-25T05:29:56;99965.97;;;8.46;100.00
24486;BME280;13449;49.374;8.584;2023-04-25T05:32:23;99964.19;;;8.61;100.00
24486;BME280;13449;49.374;8.584;2023-04-25T05:34:54;99958.13;;;8.60;100.00
24486;BME280;13449;49.374;8.584;2023-04-25T05:37:22;99960.41;;;8.63;100.00
24486;BME280;13449;49.374;8.584;2023-04-25T05:39:49;99963.91;;;8.79;100.00
24486;BME280;13449;49.374;8.584;2023-04-25T05:42:15;99970.91;;;8.86;100.00
24486;BME280;13449;49.374;8.584;2023-04-25T05:44:42;99976.84;;;8.80;100.00
24486;BME280;13449;49.374;8.584;2023-04-25T05:47:08;99985.28;;;8.76;100.00
24486;BME280;13449;49.374;8.584;2023-04-25T05:49:35;99976.16;;;8.86;100.00
24486;BME280;13449;49.374;8.584;2023-04-25T05:52:04;99973.72;;;8.85;100.00
24486;BME280;13449;49.374;8.584;2023-04-25T05:54:30;99986.50;;;8.88;100.00
24486;BME280;13449;49.374;8.584;2023-04-25T05:56:59;99985.59;;;8.96;100.00
24486;BME280;13449;49.374;8.584;2023-04-25T05:59:28;99985.97;;;8.93;100.00
24486;BME280;13449;49.374;8.584;2023-04-25T06:01:55;99981.13;;;8.81;100.00
24486;BME280;13449;49.374;8.584;2023-04-25T06:04:21;99990.28;;;8.85;100.00
24486;BME280;13449;49.374;8.584;2023-04-25T06:06:48;99996.53;;;8.84;100.00
24486;BME280;13449;49.374;8.584;2023-04-25T06:09:15;99997.53;;;8.83;100.00
24486;BME280;13449;49.374;8.584;2023-04-25T06:11:41;100000.81;;;8.85;100.00
24486;BME280;13449;49.374;8.584;2023-04-25T06:14:08;100003.44;;;8.85;100.00
24486;BME280;13449;49.374;8.584;2023-04-25T06:16:34;100005.63;;;8.97;100.00
24486;BME280;13449;49.374;8.584;2023-04-25T06:19:01;100011.13;;;8.87;100.00
24486;BME280;13449;49.374;8.584;2023-04-25T06:21:27;100009.16;;;8.89;100.00
24486;BME280;13449;49.374;8.584;2023-04-25T06:23:53;100002.25;;;8.88;100.00
24486;BME280;13449;49.374;8.584;2023-04-25T06:26:20;100013.75;;;8.87;100.00
24486;BME280;13449;49.374;8.584;2023-04-25T06:28:46;100005.75;;;8.80;100.00
24486;BME280;13449;49.374;8.584;2023-04-25T06:31:13;100000.56;;;8.95;100.00
24486;BME280;13449;49.374;8.584;2023-04-25T06:33:39;100001.56;;;8.94;100.00
24486;BME280;13449;49.374;8.584;2023-04-25T06:36:09;100006.13;;;9.15;100.00
24486;BME280;13449;49.374;8.584;2023-04-25T06:38:35;100001.53;;;9.17;100.00
24486;BME280;13449;49.374;8.584;2023-04-25T06:41:02;100003.56;;;9.30;100.00
24486;BME280;13449;49.374;8.584;2023-04-25T06:43:29;100004.72;;;9.42;100.00
24486;BME280;13449;49.374;8.584;2023-04-25T06:45:59;100013.75;;;9.63;100.00
24486;BME280;13449;49.374;8.584;2023-04-25T06:48:27;100008.75;;;9.68;100.00
24486;BME280;13449;49.374;8.584;2023-04-25T06:50:53;100015.47;;;9.70;100.00
24486;BME280;13449;49.374;8.584;2023-04-25T06:53:20;100011.75;;;9.50;100.00
24486;BME280;13449;49.374;8.584;2023-04-25T06:55:49;100018.53;;;9.44;100.00
24486;BME280;13449;49.374;8.584;2023-04-25T06:58:15;100017.63;;;9.37;100.00
24486;BME280;13449;49.374;8.584;2023-04-25T07:00:42;100022.88;;;9.37;100.00
24486;BME280;13449;49.374;8.584;2023-04-25T07:03:10;100016.31;;;9.18;100.00
24486;BME280;13449;49.374;8.584;2023-04-25T07:05:37;100027.13;;;9.23;100.00
24486;BME280;13449;49.374;8.584;2023-04-25T07:08:04;100026.50;;;9.13;100.00
24486;BME280;13449;49.374;8.584;2023-04-25T07:10:30;100022.56;;;9.17;100.00
24486;BME280;13449;49.374;8.584;2023-04-25T07:12:57;100029.91;;;8.99;100.00
24486;BME280;13449;49.374;8.584;2023-04-25T07:15:23;100028.75;;;9.01;100.00
24486;BME280;13449;49.374;8.584;2023-04-25T07:17:50;100035.63;;;9.02;100.00
24486;BME280;13449;49.374;8.584;2023-04-25T07:20:16;100033.44;;;8.91;100.00
24486;BME280;13449;49.374;8.584;2023-04-25T07:22:43;100033.81;;;8.80;100.00
24486;BME280;13449;49.374;8.584;2023-04-25T07:25:10;100036.91;;;8.60;100.00
24486;BME280;13449;49.374;8.584;2023-04-25T07:27:36;100041.63;;;8.42;100.00
24486;BME280;13449;49.374;8.584;2023-04-25T07:30:03;100043.41;;;8.33;100.00
24486;BME280;13449;49.374;8.584;2023-04-25T07:32:30;100046.41;;;8.38;100.00
24486;BME280;13449;49.374;8.584;2023-04-25T07:34:57;100051.66;;;8.38;100.00
24486;BME280;13449;49.374;8.584;2023-04-25T07:37:26;100051.47;;;8.40;100.00
24486;BME280;13449;49.374;8.584;2023-04-25T07:39:52;100043.41;;;8.41;100.00
24486;BME280;13449;49.374;8.584;2023-04-25T07:42:19;100048.16;;;8.46;100.00
24486;BME280;13449;49.374;8.584;2023-04-25T07:44:46;100047.34;;;8.46;100.00
24486;BME280;13449;49.374;8.584;2023-04-25T07:47:15;100048.22;;;8.61;100.00
24486;BME280;13449;49.374;8.584;2023-04-25T07:49:45;100048.94;;;8.55;100.00
24486;BME280;13449;49.374;8.584;2023-04-25T07:52:12;100051.81;;;8.68;100.00
24486;BME280;13449;49.374;8.584;2023-04-25T07:54:38;100053.59;;;8.68;100.00
24486;BME280;13449;49.374;8.584;2023-04-25T07:57:04;100056.84;;;8.78;100.00
24486;BME280;13449;49.374;8.584;2023-04-25T07:59:32;100070.34;;;8.66;100.00
24486;BME280;13449;49.374;8.584;2023-04-25T08:01:59;100071.06;;;8.83;100.00
24486;BME280;13449;49.374;8.584;2023-04-25T08:04:26;100074.53;;;8.53;100.00
24486;BME280;13449;49.374;8.584;2023-04-25T08:06:53;100074.59;;;8.68;100.00
24486;BME280;13449;49.374;8.584;2023-04-25T08:09:20;100089.41;;;8.60;100.00
24486;BME280;13449;49.374;8.584;2023-04-25T08:11:47;100092.81;;;8.69;100.00
24486;BME280;13449;49.374;8.584;2023-04-25T08:14:15;100099.16;;;9.06;100.00
24486;BME280;13449;49.374;8.584;2023-04-25T08:16:42;100100.69;;;9.00;100.00
24486;BME280;13449;49.374;8.584;2023-04-25T08:19:09;100103.44;;;9.07;100.00
24486;BME280;13449;49.374;8.584;2023-04-25T08:21:39;100102.97;;;9.26;100.00
24486;BME280;13449;49.374;8.584;2023-04-25T08:24:06;100110.31;;;9.54;100.00
24486;BME280;13449;49.374;8.584;2023-04-25T08:26:35;100115.09;;;10.03;100.00
24486;BME280;13449;49.374;8.584;2023-04-25T08:29:03;100116.75;;;10.19;100.00
24486;BME280;13449;49.374;8.584;2023-04-25T08:31:32;100122.28;;;10.24;100.00
24486;BME280;13449;49.374;8.584;2023-04-25T08:33:59;100129.25;;;10.02;100.00
24486;BME280;13449;49.374;8.584;2023-04-25T08:36:27;100127.25;;;10.04;100.00
24486;BME280;13449;49.374;8.584;2023-04-25T08:38:57;100138.88;;;9.95;100.00
24486;BME280;13449;49.374;8.584;2023-04-25T08:41:25;100148.72;;;9.78;100.00
24486;BME280;13449;49.374;8.584;2023-04-25T08:43:53;100148.72;;;9.78;100.00
24486;BME280;13449;49.374;8.584;2023-04-25T08:46:21;100141.78;;;9.85;100.00
24486;BME280;13449;49.374;8.584;2023-04-25T08:48:48;100145.56;;;9.97;100.00
24486;BME280;13449;49.374;8.584;2023-04-25T08:51:21;100141.81;;;10.15;100.00
24486;BME280;13449;49.374;8.584;2023-04-25T08:53:51;100143.78;;;9.98;100.00
24486;BME280;13449;49.374;8.584;2023-04-25T08:56:22;100143.78;;;10.13;100.00
24486;BME280;13449;49.374;8.584;2023-04-25T08:58:52;100152.59;;;10.20;100.00
24486;BME280;13449;49.374;8.584;2023-04-25T09:01:21;100149.44;;;10.39;100.00
24486;BME280;13449;49.374;8.584;2023-04-25T09:03:48;100150.06;;;10.56;100.00
24486;BME280;13449;49.374;8.584;2023-04-25T09:06:16;100164.25;;;10.55;100.00
24486;BME280;13449;49.374;8.584;2023-04-25T09:08:44;100162.81;;;11.04;100.00
24486;BME280;13449;49.374;8.584;2023-04-25T09:11:12;100163.66;;;11.26;100.00
24486;BME280;13449;49.374;8.584;2023-04-25T09:13:41;100163.19;;;11.00;100.00
24486;BME280;13449;49.374;8.584;2023-04-25T09:16:11;100168.94;;;11.26;100.00
24486;BME280;13449;49.374;8.584;2023-04-25T09:18:37;100169.22;;;11.80;100.00
24486;BME280;13449;49.374;8.584;2023-04-25T09:21:06;100174.06;;;11.77;100.00
24486;BME280;13449;49.374;8.584;2023-04-25T09:23:49;100163.69;;;11.97;100.00
24486;BME280;13449;49.374;8.584;2023-04-25T09:26:21;100172.09;;;12.07;100.00
24486;BME280;13449;49.374;8.584;2023-04-25T09:28:47;100178.97;;;11.80;100.00
24486;BME280;13449;49.374;8.584;2023-04-25T09:31:23;100173.06;;;11.78;100.00
24486;BME280;13449;49.374;8.584;2023-04-25T09:33:59;100172.00;;;11.93;100.00
24486;BME280;13449;49.374;8.584;2023-04-25T09:36:30;100176.97;;;11.60;100.00
24486;BME280;13449;49.374;8.584;2023-04-25T09:38:59;100190.03;;;11.47;100.00
24486;BME280;13449;49.374;8.584;2023-04-25T09:41:25;100191.97;;;11.60;100.00
24486;BME280;13449;49.374;8.584;2023-04-25T09:43:56;100204.78;;;12.06;100.00
24486;BME280;13449;49.374;8.584;2023-04-25T09:46:33;100197.34;;;12.51;100.00
24486;BME280;13449;49.374;8.584;2023-04-25T09:49:06;100191.41;;;12.83;100.00
24486;BME280;13449;49.374;8.584;2023-04-25T09:51:35;100195.91;;;12.90;100.00
24486;BME280;13449;49.374;8.584;2023-04-25T09:54:01;100206.22;;;12.71;100.00
24486;BME280;13449;49.374;8.584;2023-04-25T09:56:31;100208.53;;;12.88;100.00
24486;BME280;13449;49.374;8.584;2023-04-25T09:58:59;100201.47;;;12.60;100.00
24486;BME280;13449;49.374;8.584;2023-04-25T10:01:26;100207.06;;;12.78;100.00
24486;BME280;13449;49.374;8.584;2023-04-25T10:03:54;100211.91;;;12.40;100.00
24486;BME280;13449;49.374;8.584;2023-04-25T10:06:24;100218.38;;;12.03;100.00
24486;BME280;13449;49.374;8.584;2023-04-25T10:08:55;100211.34;;;11.88;100.00
24486;BME280;13449;49.374;8.584;2023-04-25T10:11:22;100215.72;;;11.81;100.00
24486;BME280;13449;49.374;8.584;2023-04-25T10:13:51;100224.16;;;11.70;100.00
24486;BME280;13449;49.374;8.584;2023-04-25T10:16:19;100212.44;;;11.79;100.00
24486;BME280;13449;49.374;8.584;2023-04-25T10:18:46;100219.72;;;12.20;100.00
24486;BME280;13449;49.374;8.584;2023-04-25T10:21:12;100224.38;;;12.18;100.00
24486;BME280;13449;49.374;8.584;2023-04-25T10:23:41;100230.41;;;11.69;100.00
24486;BME280;13449;49.374;8.584;2023-04-25T10:26:08;100222.53;;;11.90;100.00
24486;BME280;13449;49.374;8.584;2023-04-25T10:28:59;100226.41;;;12.51;100.00
24486;BME280;13449;49.374;8.584;2023-04-25T10:31:26;100232.50;;;12.16;100.00
24486;BME280;13449;49.374;8.584;2023-04-25T10:33:56;100238.97;;;11.92;100.00
24486;BME280;13449;49.374;8.584;2023-04-25T10:36:24;100236.22;;;12.01;100.00
24486;BME280;13449;49.374;8.584;2023-04-25T10:38:53;100241.50;;;12.01;100.00
24486;BME280;13449;49.374;8.584;2023-04-25T10:41:21;100240.69;;;12.00;100.00
24486;BME280;13449;49.374;8.584;2023-04-25T10:43:49;100242.22;;;12.44;100.00
24486;BME280;13449;49.374;8.584;2023-04-25T10:46:27;100246.50;;;12.45;100.00
24486;BME280;13449;49.374;8.584;2023-04-25T10:49:03;100233.47;;;12.44;100.00
24486;BME280;13449;49.374;8.584;2023-04-25T10:51:33;100235.50;;;13.18;100.00
24486;BME280;13449;49.374;8.584;2023-04-25T10:54:22;100236.13;;;12.78;100.00
24486;BME280;13449;49.374;8.584;2023-04-25T10:56:52;100243.00;;;12.38;100.00
24486;BME280;13449;49.374;8.584;2023-04-25T10:59:19;100240.88;;;11.99;100.00
24486;BME280;13449;49.374;8.584;2023-04-25T11:01:51;100242.09;;;11.81;100.00
24486;BME280;13449;49.374;8.584;2023-04-25T11:09:34;100251.03;;;11.59;100.00
24486;BME280;13449;49.374;8.584;2023-04-25T11:12:01;100250.31;;;11.50;100.00
24486;BME280;13449;49.374;8.584;2023-04-25T11:14:31;100259.03;;;11.29;100.00
24486;BME280;13449;49.374;8.584;2023-04-25T11:16:58;100250.16;;;11.52;100.00
24486;BME280;13449;49.374;8.584;2023-04-25T11:19:29;100250.66;;;11.83;100.00
24486;BME280;13449;49.374;8.584;2023-04-25T11:21:56;100241.72;;;11.63;100.00
24486;BME280;13449;49.374;8.584;2023-04-25T11:24:34;100251.78;;;11.53;100.00
24486;BME280;13449;49.374;8.584;2023-04-25T11:27:01;100250.63;;;11.40;100.00
24486;BME280;13449;49.374;8.584;2023-04-25T11:29:29;100253.75;;;11.29;100.00
24486;BME280;13449;49.374;8.584;2023-04-25T11:32:01;100257.19;;;11.44;100.00
24486;BME280;13449;49.374;8.584;2023-04-25T11:34:29;100257.63;;;11.48;100.00
24486;BME280;13449;49.374;8.584;2023-04-25T11:37:00;100262.00;;;11.41;100.00
24486;BME280;13449;49.374;8.584;2023-04-25T11:39:28;100261.25;;;11.47;100.00
24486;BME280;13449;49.374;8.584;2023-04-25T11:41:57;100259.78;;;12.02;100.00
24486;BME280;13449;49.374;8.584;2023-04-25T11:44:27;100263.09;;;12.32;100.00
24486;BME280;13449;49.374;8.584;2023-04-25T11:46:55;100273.06;;;12.65;100.00
24486;BME280;13449;49.374;8.584;2023-04-25T11:49:21;100257.56;;;13.45;100.00
24486;BME280;13449;49.374;8.584;2023-04-25T11:51:51;100270.09;;;13.23;100.00
24486;BME280;13449;49.374;8.584;2023-04-25T11:54:17;100272.25;;;13.06;100.00
24486;BME280;13449;49.374;8.584;2023-04-25T11:56:47;100274.19;;;12.84;100.00
24486;BME280;13449;49.374;8.584;2023-04-25T11:59:14;100283.47;;;12.73;100.00
24486;BME280;13449;49.374;8.584;2023-04-25T12:01:48;100277.78;;;12.42;100.00
24486;BME280;13449;49.374;8.584;2023-04-25T12:04:21;100283.91;;;12.21;100.00
24486;BME280;13449;49.374;8.584;2023-04-25T12:06:50;100286.50;;;11.92;100.00
24486;BME280;13449;49.374;8.584;2023-04-25T12:09:19;100287.75;;;12.18;100.00
24486;BME280;13449;49.374;8.584;2023-04-25T12:11:52;100292.16;;;12.11;100.00
24486;BME280;13449;49.374;8.584;2023-04-25T12:14:23;100284.13;;;11.98;100.00
24486;BME280;13449;49.374;8.584;2023-04-25T12:16:57;100300.13;;;12.18;100.00
24486;BME280;13449;49.374;8.584;2023-04-25T12:19:25;100293.84;;;12.19;100.00
24486;BME280;13449;49.374;8.584;2023-04-25T12:21:52;100296.34;;;12.27;100.00
24486;BME280;13449;49.374;8.584;2023-04-25T12:24:23;100290.78;;;12.43;100.00
24486;BME280;13449;49.374;8.584;2023-04-25T12:27:03;100294.22;;;12.65;100.00
24486;BME280;13449;49.374;8.584;2023-04-25T12:29:32;100293.34;;;12.30;100.00
24486;BME280;13449;49.374;8.584;2023-04-25T12:32:13;100302.44;;;11.99;100.00
24486;BME280;13449;49.374;8.584;2023-04-25T12:34:45;100296.41;;;12.12;100.00
24486;BME280;13449;49.374;8.584;2023-04-25T12:37:12;100297.91;;;11.93;100.00
24486;BME280;13449;49.374;8.584;2023-04-25T12:39:39;100298.88;;;12.13;100.00
24486;BME280;13449;49.374;8.584;2023-04-25T12:42:05;100298.47;;;12.38;100.00
24486;BME280;13449;49.374;8.584;2023-04-25T12:44:35;100286.56;;;12.49;100.00
24486;BME280;13449;49.374;8.584;2023-04-25T12:47:01;100298.63;;;12.30;100.00
24486;BME280;13449;49.374;8.584;2023-04-25T12:49:32;100292.38;;;12.66;100.00
24486;BME280;13449;49.374;8.584;2023-04-25T12:52:01;100298.63;;;12.93;100.00
24486;BME280;13449;49.374;8.584;2023-04-25T12:54:29;100292.31;;;13.28;100.00
24486;BME280;13449;49.374;8.584;2023-04-25T12:56:56;100293.72;;;13.86;100.00
24486;BME280;13449;49.374;8.584;2023-04-25T12:59:23;100298.63;;;14.02;99.16
24486;BME280;13449;49.374;8.584;2023-04-25T13:01:49;100301.66;;;13.86;100.00